Time;durP1;ratioP1;P1;durP2;ratioP2;P2;SDS_P1;SDS_P2;PMS_P1;PMS_P2;Temp;Humidity;BMP_temperature;BMP_pressure;BME280_temperature;BME280_humidity;BME280_pressure;Samples;Min_cycle;Max_cycle;Signal;HPM_P1;HPM_P2
2022/10/22 00:02:19;;;;;;;1.30;1.20;;;21.80;52.30;20.80;100548.00;;;;5092389;28;20103;-66
2022/10/22 00:04:48;;;;;;;1.98;1.33;;;21.70;52.20;20.80;100552.00;;;;5074646;28;20357;-66
2022/10/22 00:07:18;;;;;;;2.30;1.30;;;21.70;52.30;20.80;100554.00;;;;5073661;28;20082;-66
2022/10/22 00:09:44;;;;;;;1.52;1.20;;;21.70;52.30;20.80;100559.00;;;;5070121;28;20503;-66
2022/10/22 00:12:10;;;;;;;1.60;1.20;;;21.70;52.30;20.80;100555.00;;;;5073737;28;20028;-66
2022/10/22 00:14:35;;;;;;;1.90;1.27;;;21.70;52.30;20.80;100571.00;;;;5092215;28;20115;-66
2022/10/22 00:17:01;;;;;;;2.15;1.70;;;21.70;52.40;20.80;100574.00;;;;5091841;28;20512;-66
2022/10/22 00:19:27;;;;;;;3.23;1.67;;;21.70;52.40;20.80;100579.00;;;;5091729;28;20442;-66
2022/10/22 00:21:53;;;;;;;1.67;1.13;;;21.70;52.40;20.80;100588.00;;;;5091510;28;20036;-66
2022/10/22 00:24:19;;;;;;;2.30;1.37;;;21.70;52.40;20.80;100588.00;;;;5074364;28;20389;-66
2022/10/22 00:26:44;;;;;;;1.60;1.30;;;21.70;52.40;20.80;100587.00;;;;5092697;28;20020;-66
2022/10/22 00:29:10;;;;;;;2.75;1.20;;;21.70;52.40;20.80;100575.00;;;;5090456;28;20081;-66
2022/10/22 00:31:36;;;;;;;1.97;1.50;;;21.70;52.40;20.80;100577.00;;;;5091642;28;20089;-66
2022/10/22 00:34:02;;;;;;;1.93;1.33;;;21.70;52.40;20.80;100571.00;;;;5092019;28;20042;-66
2022/10/22 00:36:27;;;;;;;1.57;1.47;;;21.70;52.40;20.80;100574.00;;;;5091918;28;20067;-66
2022/10/22 00:38:53;;;;;;;1.87;1.40;;;21.70;52.40;20.80;100568.00;;;;5091156;28;20123;-66
2022/10/22 00:41:19;;;;;;;1.60;1.50;;;21.70;52.40;20.80;100577.00;;;;5092330;28;20434;-66
2022/10/22 00:43:59;;;;;;;1.57;1.10;;;21.70;52.40;20.80;100583.00;;;;5090883;28;20028;-66
2022/10/22 00:46:25;;;;;;;3.33;1.33;;;21.70;52.40;20.80;100578.00;;;;5056321;28;20071;-66
2022/10/22 00:48:50;;;;;;;1.85;1.45;;;21.70;52.40;20.80;100568.00;;;;5091430;28;20496;-66
2022/10/22 00:51:16;;;;;;;1.40;1.30;;;21.70;52.30;20.80;100560.00;;;;5074056;28;20367;-66
2022/10/22 00:53:48;;;;;;;1.20;1.10;;;21.70;52.30;20.80;100557.00;;;;5060654;28;20493;-67
2022/10/22 00:56:14;;;;;;;1.52;1.35;;;21.70;52.40;20.80;100568.00;;;;5073050;28;20036;-67
2022/10/22 00:58:59;;;;;;;1.43;1.33;;;21.70;52.30;20.80;100565.00;;;;5073360;28;20088;-66
2022/10/22 01:01:27;;;;;;;2.03;1.40;;;21.70;52.30;20.80;100570.00;;;;5046909;28;20107;-66
2022/10/22 01:03:53;;;;;;;2.47;1.23;;;21.70;52.30;20.80;100570.00;;;;5072043;28;20033;-66
2022/10/22 01:06:26;;;;;;;1.58;1.48;;;21.70;52.30;20.80;100573.00;;;;5091945;28;20016;-67
2022/10/22 01:09:21;;;;;;;2.30;1.40;;;21.60;52.30;20.80;100571.00;;;;5055371;28;20068;-66
2022/10/22 01:12:12;;;;;;;1.98;1.40;;;21.60;52.30;20.70;100575.00;;;;5070385;28;20125;-66
2022/10/22 01:15:17;;;;;;;3.67;1.20;;;21.70;52.30;20.70;100575.00;;;;5074133;28;20443;-66
2022/10/22 01:18:05;;;;;;;1.45;1.30;;;21.70;52.30;20.70;100574.00;;;;5089263;28;20424;-66
2022/10/22 01:21:11;;;;;;;1.50;1.20;;;21.60;52.30;20.70;100566.00;;;;5073921;28;20533;-66
2022/10/22 01:24:24;;;;;;;1.50;1.20;;;21.60;52.30;20.70;100576.00;;;;5091260;28;20032;-66
2022/10/22 01:26:59;;;;;;;1.10;0.93;;;21.70;52.30;20.70;100587.00;;;;5084771;28;20431;-66
2022/10/22 01:29:49;;;;;;;1.42;1.33;;;21.70;52.30;20.70;100581.00;;;;5073403;28;20032;-66
2022/10/22 01:32:18;;;;;;;2.15;1.38;;;21.60;52.30;20.70;100580.00;;;;5072019;28;20090;-66
2022/10/22 01:34:47;;;;;;;1.42;1.33;;;21.60;52.30;20.70;100577.00;;;;5065837;28;20043;-66
2022/10/22 01:37:13;;;;;;;1.35;1.25;;;21.60;52.30;20.70;100586.00;;;;5074664;28;20421;-66
2022/10/22 01:39:39;;;;;;;1.35;0.90;;;21.50;52.20;20.70;100578.00;;;;5072549;28;20032;-66
2022/10/22 01:42:05;;;;;;;2.92;1.33;;;21.60;52.30;20.70;100573.00;;;;5059890;28;20060;-66
2022/10/22 01:44:33;;;;;;;2.53;1.25;;;21.60;52.30;20.70;100573.00;;;;5090320;28;20016;-66
2022/10/22 01:47:43;;;;;;;2.25;1.10;;;21.60;52.30;20.70;100571.00;;;;5089926;28;20032;-66
2022/10/22 01:50:32;;;;;;;1.85;1.38;;;21.60;52.30;20.70;100570.00;;;;5042099;28;20461;-66
2022/10/22 01:53:22;;;;;;;2.10;1.40;;;21.60;52.30;20.70;100567.00;;;;5088634;28;20031;-66
2022/10/22 01:56:31;;;;;;;2.63;1.00;;;21.60;52.30;20.70;100577.00;;;;5094262;28;20458;-66
2022/10/22 01:59:13;;;;;;;5.35;1.23;;;21.60;52.30;20.70;100568.00;;;;5067567;28;20064;-66
2022/10/22 02:01:52;;;;;;;1.40;1.30;;;21.60;52.20;20.70;100571.00;;;;5072496;28;20039;-66
2022/10/22 02:04:49;;;;;;;2.25;1.33;;;21.60;52.20;20.70;100578.00;;;;5087895;28;20233;-66
2022/10/22 02:07:17;;;;;;;1.20;1.10;;;21.60;52.30;20.70;100575.00;;;;5071866;28;20513;-66
2022/10/22 02:09:43;;;;;;;1.25;1.10;;;21.60;52.30;20.70;100576.00;;;;5054009;28;20036;-66
2022/10/22 02:12:09;;;;;;;1.50;1.20;;;21.60;52.20;20.70;100578.00;;;;5071362;28;20032;-66
2022/10/22 02:14:37;;;;;;;1.20;1.10;;;21.50;52.20;20.70;100572.00;;;;5056141;28;20435;-66
2022/10/22 02:17:03;;;;;;;1.30;1.20;;;21.60;52.30;20.70;100570.00;;;;5071511;28;20503;-66
2022/10/22 02:19:59;;;;;;;1.30;1.20;;;21.60;52.20;20.70;100563.00;;;;5078233;28;20028;-66
2022/10/22 02:22:25;;;;;;;1.10;1.00;;;21.60;52.20;20.70;100560.00;;;;5061748;28;20020;-66
2022/10/22 02:24:51;;;;;;;2.13;1.13;;;21.60;52.20;20.70;100566.00;;;;5056347;28;20059;-66
2022/10/22 02:27:24;;;;;;;1.47;1.20;;;21.60;52.20;20.70;100567.00;;;;5075758;28;20056;-67
2022/10/22 02:30:03;;;;;;;1.50;1.30;;;21.60;52.20;20.70;100563.00;;;;5075602;28;20389;-66
2022/10/22 02:32:46;;;;;;;1.23;0.93;;;21.60;52.20;20.70;100556.00;;;;5092702;28;20024;-66
2022/10/22 02:35:14;;;;;;;2.22;1.17;;;21.60;52.20;20.70;100563.00;;;;5077265;28;20046;-66
2022/10/22 02:37:40;;;;;;;1.05;0.95;;;21.60;52.20;20.70;100562.00;;;;5075194;28;20306;-66
2022/10/22 02:40:06;;;;;;;2.07;1.20;;;21.60;52.20;20.70;100566.00;;;;5075752;28;20263;-67
2022/10/22 02:42:32;;;;;;;1.40;1.02;;;21.60;52.20;20.70;100572.00;;;;5084363;28;20024;-66
2022/10/22 02:44:57;;;;;;;1.33;1.23;;;21.60;52.30;20.70;100563.00;;;;5076063;28;20042;-67
2022/10/22 02:47:23;;;;;;;1.43;1.10;;;21.50;52.10;20.70;100563.00;;;;5075400;28;20031;-67
2022/10/22 02:49:49;;;;;;;1.33;1.23;;;21.60;52.20;20.70;100562.00;;;;5093842;28;20064;-66
2022/10/22 02:52:15;;;;;;;0.90;0.90;;;21.60;52.20;20.70;100567.00;;;;5093236;28;20062;-66
2022/10/22 02:54:40;;;;;;;1.80;1.10;;;21.60;52.20;20.70;100570.00;;;;5093847;28;20067;-66
2022/10/22 02:57:06;;;;;;;1.70;1.20;;;21.50;52.10;20.70;100573.00;;;;5093750;28;20123;-67
2022/10/22 02:59:32;;;;;;;1.33;1.10;;;21.60;52.20;20.70;100578.00;;;;5093982;28;20028;-66
2022/10/22 03:01:58;;;;;;;1.42;1.10;;;21.60;52.20;20.70;100581.00;;;;5093214;28;20473;-66
2022/10/22 03:04:24;;;;;;;1.10;0.97;;;21.50;52.10;20.70;100581.00;;;;5093647;28;20290;-66
2022/10/22 03:06:50;;;;;;;1.30;1.20;;;21.60;52.20;20.70;100579.00;;;;5093222;28;20070;-66
2022/10/22 03:09:15;;;;;;;1.00;0.90;;;21.50;52.10;20.70;100582.00;;;;5093751;28;20110;-67
2022/10/22 03:11:41;;;;;;;1.37;1.10;;;21.60;52.10;20.70;100578.00;;;;5092910;28;20035;-66
2022/10/22 03:14:07;;;;;;;0.83;0.80;;;21.70;52.20;20.70;100572.00;;;;5093214;28;20063;-66
2022/10/22 03:16:33;;;;;;;0.90;0.90;;;21.60;52.10;20.70;100578.00;;;;5092343;28;20127;-66
2022/10/22 03:19:00;;;;;;;1.37;1.27;;;21.60;52.20;20.60;100576.00;;;;5093042;28;20071;-66
2022/10/22 03:21:38;;;;;;;1.50;1.10;;;21.60;52.10;20.60;100577.00;;;;5093508;28;20144;-66
2022/10/22 03:24:12;;;;;;;;;;;21.50;52.10;20.60;100574.00;;;;5075747;28;20111;-66
2022/10/22 03:26:38;;;;;;;0.93;0.90;;;21.60;52.20;20.60;100581.00;;;;5072530;28;19965;-66
2022/10/22 03:29:04;;;;;;;1.70;0.88;;;21.60;52.00;20.60;100588.00;;;;5058046;28;20038;-66
2022/10/22 03:31:29;;;;;;;1.50;1.00;;;21.60;52.00;20.60;100583.00;;;;5073845;28;20032;-66
2022/10/22 03:33:55;;;;;;;1.00;0.80;;;21.60;52.10;20.60;100580.00;;;;5093334;28;20055;-66
2022/10/22 03:36:21;;;;;;;3.03;0.90;;;21.50;52.00;20.60;100579.00;;;;5093699;28;20039;-66
2022/10/22 03:38:47;;;;;;;1.53;1.30;;;21.50;52.00;20.60;100597.00;;;;5091706;28;20495;-66
2022/10/22 03:41:12;;;;;;;2.10;1.00;;;21.50;52.10;20.60;100583.00;;;;5091468;28;20059;-66
2022/10/22 03:43:39;;;;;;;1.57;0.90;;;21.50;52.10;20.60;100586.00;;;;5074852;28;20114;-66
2022/10/22 03:46:05;;;;;;;0.98;0.98;;;21.50;52.10;20.60;100579.00;;;;5074671;28;20024;-66
2022/10/22 03:48:31;;;;;;;0.88;0.88;;;21.50;52.10;20.60;100591.00;;;;5093476;28;20077;-66
2022/10/22 03:50:57;;;;;;;1.00;0.90;;;21.50;52.00;20.60;100589.00;;;;5077688;28;20024;-66
2022/10/22 03:53:22;;;;;;;1.43;1.10;;;21.50;52.10;20.60;100589.00;;;;5091416;28;20024;-66
2022/10/22 03:55:48;;;;;;;2.00;1.10;;;21.50;52.10;20.60;100595.00;;;;5074580;28;20110;-66
2022/10/22 03:58:14;;;;;;;1.27;1.10;;;21.50;52.10;20.60;100597.00;;;;5093289;28;20051;-66
2022/10/22 04:00:40;;;;;;;1.83;0.90;;;21.50;52.10;20.60;100599.00;;;;5078013;28;20043;-66
2022/10/22 04:03:05;;;;;;;1.50;0.97;;;21.50;52.10;20.60;100593.00;;;;5092112;28;20090;-66
2022/10/22 04:05:32;;;;;;;3.93;0.93;;;21.50;52.10;20.60;100598.00;;;;5092575;28;20154;-66
2022/10/22 04:07:58;;;;;;;0.90;0.82;;;21.50;52.10;20.60;100595.00;;;;5091961;28;20290;-66
2022/10/22 04:10:24;;;;;;;1.02;0.95;;;21.50;52.00;20.60;100598.00;;;;5092303;28;20020;-66
2022/10/22 04:12:50;;;;;;;1.70;1.00;;;21.50;52.10;20.60;100596.00;;;;5073831;28;20425;-66
2022/10/22 04:15:16;;;;;;;0.85;0.70;;;21.50;52.00;20.60;100596.00;;;;5092617;28;20432;-66
2022/10/22 04:17:42;;;;;;;1.63;1.03;;;21.50;52.10;20.60;100602.00;;;;5073769;28;20044;-66
2022/10/22 04:20:08;;;;;;;0.93;0.80;;;21.50;52.10;20.60;100605.00;;;;5076971;28;20047;-66
2022/10/22 04:22:34;;;;;;;1.15;0.90;;;21.40;52.00;20.60;100604.00;;;;5072647;28;20477;-66
2022/10/22 04:25:00;;;;;;;1.00;0.90;;;21.40;52.00;20.60;100617.00;;;;5074712;28;20032;-66
2022/10/22 04:27:30;;;;;;;4.25;0.80;;;21.40;52.00;20.60;100612.00;;;;5091287;28;20385;-66
2022/10/22 04:29:56;;;;;;;0.75;0.73;;;21.40;52.00;20.60;100604.00;;;;5070731;28;20040;-66
2022/10/22 04:32:21;;;;;;;0.70;0.70;;;21.50;52.10;20.60;100607.00;;;;5091230;28;20046;-67
2022/10/22 04:34:47;;;;;;;1.33;0.97;;;21.50;52.10;20.60;100607.00;;;;5091781;28;20038;-67
2022/10/22 04:37:13;;;;;;;2.13;0.70;;;21.50;52.10;20.60;100610.00;;;;5090828;28;20123;-66
2022/10/22 04:39:38;;;;;;;0.80;0.80;;;21.40;52.10;20.60;100598.00;;;;5091694;28;20067;-66
2022/10/22 04:42:04;;;;;;;2.03;0.83;;;21.50;52.00;20.60;100606.00;;;;5090701;28;20107;-66
2022/10/22 04:44:30;;;;;;;0.73;0.73;;;21.50;52.10;20.60;100601.00;;;;5091732;28;20220;-66
2022/10/22 04:46:56;;;;;;;1.47;0.90;;;21.40;52.00;20.60;100603.00;;;;5090751;28;20549;-66
2022/10/22 04:49:21;;;;;;;1.23;1.00;;;21.50;52.00;20.60;100612.00;;;;5091663;28;20067;-66
2022/10/22 04:51:47;;;;;;;0.80;0.73;;;21.50;52.00;20.60;100618.00;;;;5091592;28;20060;-66
2022/10/22 04:54:13;;;;;;;1.43;0.97;;;21.40;52.00;20.60;100608.00;;;;5091189;28;20414;-66
2022/10/22 04:56:39;;;;;;;0.87;0.83;;;21.40;52.00;20.60;100619.00;;;;5091773;28;20118;-66
2022/10/22 04:59:06;;;;;;;1.87;1.00;;;21.50;52.00;20.60;100612.00;;;;5071810;28;20134;-66
2022/10/22 05:01:41;;;;;;;1.35;0.95;;;21.50;52.00;20.60;100611.00;;;;5074577;28;20202;-68
2022/10/22 05:04:07;;;;;;;0.93;0.80;;;21.50;52.00;20.50;100610.00;;;;5056938;28;20032;-66
2022/10/22 05:06:34;;;;;;;1.20;1.00;;;21.40;52.00;20.60;100604.00;;;;5078097;28;20413;-66
2022/10/22 05:09:05;;;;;;;2.70;0.80;;;21.40;51.90;20.60;100608.00;;;;5091483;28;20039;-67
2022/10/22 05:11:36;;;;;;;1.00;0.80;;;21.40;51.90;20.50;100614.00;;;;5077627;28;20035;-66
2022/10/22 05:14:03;;;;;;;0.90;0.73;;;21.40;51.90;20.50;100621.00;;;;5076644;28;20484;-66
2022/10/22 05:16:29;;;;;;;1.20;1.02;;;21.40;51.90;20.50;100619.00;;;;5091562;28;20035;-66
2022/10/22 05:18:56;;;;;;;0.85;0.85;;;21.40;51.90;20.60;100612.00;;;;5057239;28;20028;-66
2022/10/22 05:21:22;;;;;;;0.95;0.85;;;21.50;52.00;20.50;100614.00;;;;5072780;28;20085;-66
2022/10/22 05:23:49;;;;;;;1.60;0.90;;;21.50;52.00;20.50;100615.00;;;;5090918;28;20355;-66
2022/10/22 05:26:18;;;;;;;;;;;21.40;51.90;20.50;100626.00;;;;5086968;28;20043;-66
2022/10/22 05:28:45;;;;;;;0.95;0.85;;;21.40;52.00;20.50;100629.00;;;;5088711;28;20357;-66
2022/10/22 05:31:11;;;;;;;1.35;0.95;;;21.30;51.80;20.50;100629.00;;;;5070570;28;20032;-66
2022/10/22 05:33:37;;;;;;;2.17;1.02;;;21.40;51.90;20.50;100625.00;;;;5090260;28;20055;-66
2022/10/22 05:36:04;;;;;;;1.00;0.80;;;21.40;51.90;20.50;100629.00;;;;5091848;28;20035;-66
2022/10/22 05:38:31;;;;;;;0.75;0.75;;;21.40;51.90;20.50;100627.00;;;;5070483;28;20458;-66
2022/10/22 05:41:03;;;;;;;1.20;1.10;;;21.50;51.90;20.50;100639.00;;;;5088955;28;20024;-66
2022/10/22 05:43:29;;;;;;;2.10;0.90;;;21.40;51.90;20.50;100632.00;;;;5075013;28;20024;-66
2022/10/22 05:45:54;;;;;;;1.15;0.90;;;21.40;51.90;20.50;100633.00;;;;5089344;28;20024;-66
2022/10/22 05:48:20;;;;;;;1.53;1.20;;;21.40;51.90;20.50;100636.00;;;;5088535;28;20028;-66
2022/10/22 05:50:49;;;;;;;0.97;0.87;;;21.40;51.90;20.50;100639.00;;;;5089258;28;20148;-66
2022/10/22 05:53:16;;;;;;;1.63;1.15;;;21.40;51.90;20.50;100641.00;;;;5068664;28;20039;-66
2022/10/22 05:55:42;;;;;;;1.10;0.90;;;21.40;51.90;20.50;100630.00;;;;5089786;28;20040;-66
2022/10/22 05:58:08;;;;;;;2.93;1.10;;;21.40;51.90;20.50;100642.00;;;;5072453;28;20043;-66
2022/10/22 06:00:34;;;;;;;1.33;1.00;;;21.40;51.90;20.50;100654.00;;;;5074387;28;20032;-66
2022/10/22 06:03:00;;;;;;;1.83;1.07;;;21.30;51.80;20.50;100651.00;;;;5081551;28;20044;-66
2022/10/22 06:05:26;;;;;;;1.40;1.27;;;21.40;51.80;20.50;100651.00;;;;5067308;28;20613;-66
2022/10/22 06:07:52;;;;;;;1.30;0.98;;;21.40;51.90;20.50;100647.00;;;;5081090;28;20028;-66
2022/10/22 06:10:19;;;;;;;1.37;1.00;;;21.40;51.80;20.50;100646.00;;;;5065021;28;20028;-66
2022/10/22 06:12:48;;;;;;;2.17;1.20;;;21.40;51.80;20.50;100648.00;;;;5049043;28;20458;-67
2022/10/22 06:15:16;;;;;;;1.45;0.90;;;21.40;51.80;20.50;100655.00;;;;5065807;28;20042;-67
2022/10/22 06:17:43;;;;;;;1.85;0.90;;;21.40;51.80;20.50;100654.00;;;;5066705;28;20159;-66
2022/10/22 06:20:10;;;;;;;1.65;0.93;;;21.40;51.80;20.50;100656.00;;;;5083115;28;20028;-67
2022/10/22 06:22:36;;;;;;;1.33;1.05;;;21.40;51.80;20.50;100656.00;;;;5071029;28;20040;-66
2022/10/22 06:25:02;;;;;;;0.77;0.73;;;21.40;51.80;20.50;100664.00;;;;5089651;28;20096;-66
2022/10/22 06:27:27;;;;;;;1.75;0.93;;;21.50;51.80;20.50;100679.00;;;;5070136;28;20059;-66
2022/10/22 06:29:53;;;;;;;1.33;1.23;;;21.40;51.80;20.50;100674.00;;;;5082670;28;20652;-66
2022/10/22 06:32:19;;;;;;;1.10;1.00;;;21.40;51.80;20.50;100679.00;;;;5078788;28;20111;-66
2022/10/22 06:34:45;;;;;;;1.87;1.20;;;21.40;51.70;20.50;100689.00;;;;5088083;28;20062;-66
2022/10/22 06:37:12;;;;;;;0.85;0.82;;;21.40;51.70;20.50;100690.00;;;;5082987;28;20061;-66
2022/10/22 06:39:38;;;;;;;2.03;1.15;;;21.40;51.70;20.50;100692.00;;;;5087079;28;20040;-66
2022/10/22 06:42:04;;;;;;;0.93;0.90;;;21.40;51.70;20.50;100692.00;;;;5083713;28;20024;-66
2022/10/22 06:44:29;;;;;;;1.27;0.80;;;21.40;51.70;20.50;100700.00;;;;5087309;28;20024;-66
2022/10/22 06:46:55;;;;;;;1.10;1.00;;;21.40;51.80;20.50;100701.00;;;;5084255;28;20067;-66
2022/10/22 06:49:21;;;;;;;2.37;1.20;;;21.40;51.80;20.50;100706.00;;;;5084958;28;20048;-66
2022/10/22 06:51:53;;;;;;;2.30;1.10;;;21.40;51.80;20.50;100712.00;;;;5066978;28;20036;-66
2022/10/22 06:54:20;;;;;;;1.00;0.90;;;21.40;51.70;20.50;100721.00;;;;5052150;28;20203;-67
2022/10/22 06:56:46;;;;;;;1.00;0.90;;;21.40;51.70;20.50;100724.00;;;;5085017;28;20163;-66
2022/10/22 06:59:11;;;;;;;1.70;1.00;;;21.40;51.70;20.50;100727.00;;;;5068685;28;20438;-66
2022/10/22 07:01:57;;;;;;;2.17;1.02;;;21.40;51.70;20.50;100728.00;;;;5081418;28;20024;-66
2022/10/22 07:04:23;;;;;;;1.20;1.10;;;21.40;51.70;20.50;100723.00;;;;5087961;28;20038;-66
2022/10/22 07:06:49;;;;;;;1.20;1.03;;;21.40;51.70;20.50;100725.00;;;;5089883;28;20101;-66
2022/10/22 07:09:14;;;;;;;1.20;1.05;;;21.40;51.70;20.50;100721.00;;;;5088466;28;20135;-66
2022/10/22 07:11:44;;;;;;;2.43;1.50;;;21.50;51.70;20.50;100728.00;;;;5088391;28;20063;-66
2022/10/22 07:14:10;;;;;;;1.25;1.02;;;21.40;51.70;20.50;100731.00;;;;5088915;28;20043;-66
2022/10/22 07:16:36;;;;;;;1.83;0.98;;;21.50;51.70;20.50;100728.00;;;;5073867;28;20516;-66
2022/10/22 07:19:02;;;;;;;1.20;1.00;;;21.50;51.70;20.50;100742.00;;;;5090393;28;20040;-66
2022/10/22 07:21:28;;;;;;;1.83;1.05;;;21.50;51.70;20.50;100743.00;;;;5075555;28;20107;-66
2022/10/22 07:23:54;;;;;;;1.13;1.02;;;21.50;51.70;20.50;100757.00;;;;5075012;28;20103;-66
2022/10/22 07:26:20;;;;;;;4.33;1.40;;;21.50;51.70;20.50;100755.00;;;;5092243;28;20426;-65
2022/10/22 07:28:46;;;;;;;2.63;0.80;;;21.40;51.70;20.50;100755.00;;;;5092683;28;20055;-66
2022/10/22 07:31:13;;;;;;;1.83;1.00;;;21.40;51.70;20.50;100761.00;;;;5091833;28;20036;-66
2022/10/22 07:33:39;;;;;;;1.27;0.98;;;21.40;51.70;20.50;100757.00;;;;5092480;28;20079;-65
2022/10/22 07:36:07;;;;;;;9.63;1.27;;;21.50;51.70;20.50;100758.00;;;;5092488;28;20065;-66
2022/10/22 07:38:33;;;;;;;1.95;1.10;;;21.40;51.70;20.50;100759.00;;;;5073381;28;20032;-66
2022/10/22 07:40:58;;;;;;;1.20;1.00;;;21.40;51.70;20.50;100770.00;;;;5092113;28;20363;-66
2022/10/22 07:43:24;;;;;;;1.87;1.10;;;21.40;51.70;20.50;100772.00;;;;5073287;28;20047;-66
2022/10/22 07:45:50;;;;;;;2.07;1.23;;;21.40;51.70;20.50;100767.00;;;;5092977;28;20584;-66
2022/10/22 07:48:16;;;;;;;3.20;1.10;;;21.50;51.80;20.50;100776.00;;;;5092173;28;20059;-66
2022/10/22 07:50:41;;;;;;;1.70;0.82;;;21.40;51.70;20.50;100768.00;;;;5074360;28;20036;-66
2022/10/22 07:53:07;;;;;;;1.30;1.00;;;21.50;51.70;20.50;100771.00;;;;5079107;28;20435;-66
2022/10/22 07:55:33;;;;;;;1.30;1.03;;;21.50;51.70;20.50;100777.00;;;;5092333;28;20070;-66
2022/10/22 07:57:59;;;;;;;2.78;1.20;;;21.40;51.70;20.50;100772.00;;;;5074795;28;20807;-66
2022/10/22 08:00:25;;;;;;;1.10;1.00;;;21.50;51.80;20.50;100769.00;;;;5057574;28;20136;-66
2022/10/22 08:02:51;;;;;;;1.97;1.40;;;21.50;51.80;20.50;100773.00;;;;5068570;28;20119;-65
2022/10/22 08:05:16;;;;;;;1.80;1.23;;;21.40;51.80;20.60;100774.00;;;;5090237;28;20103;-65
2022/10/22 08:07:42;;;;;;;1.83;1.23;;;21.50;51.80;20.50;100777.00;;;;5090869;28;20105;-65
2022/10/22 08:10:09;;;;;;;1.50;1.10;;;21.50;51.80;20.50;100782.00;;;;5092193;28;20028;-65
2022/10/22 08:12:35;;;;;;;1.90;1.13;;;21.50;51.90;20.50;100781.00;;;;5090419;28;20040;-65
2022/10/22 08:15:00;;;;;;;1.75;0.88;;;21.50;51.90;20.50;100781.00;;;;5090517;28;20517;-65
2022/10/22 08:17:27;;;;;;;1.43;1.20;;;21.50;51.90;20.50;100780.00;;;;5087762;28;20038;-65
2022/10/22 08:19:53;;;;;;;1.10;1.00;;;21.50;51.90;20.60;100776.00;;;;5078772;28;20036;-65
2022/10/22 08:22:18;;;;;;;1.30;0.97;;;21.50;51.90;20.60;100784.00;;;;5071289;28;20036;-65
2022/10/22 08:24:44;;;;;;;2.20;1.00;;;21.50;51.90;20.50;100783.00;;;;5090615;28;20047;-65
2022/10/22 08:27:10;;;;;;;2.20;1.27;;;21.50;51.90;20.60;100788.00;;;;5090061;28;20053;-65
2022/10/22 08:29:35;;;;;;;1.90;1.33;;;21.50;51.90;20.60;100788.00;;;;5074507;28;20462;-71
2022/10/22 08:32:01;;;;;;;1.73;1.00;;;21.50;52.00;20.50;100781.00;;;;5089160;28;20574;-65
2022/10/22 08:34:28;;;;;;;3.97;1.20;;;21.50;52.00;20.60;100786.00;;;;5090117;28;20159;-65
2022/10/22 08:36:54;;;;;;;3.08;1.08;;;21.50;52.00;20.60;100790.00;;;;5080084;28;20103;-65
2022/10/22 08:39:20;;;;;;;3.53;1.57;;;21.60;52.10;20.60;100794.00;;;;5090084;28;20470;-65
2022/10/22 08:41:51;;;;;;;2.00;1.27;;;21.60;52.20;20.60;100797.00;;;;5089311;28;20130;-65
2022/10/22 08:44:28;;;;;;;4.53;1.30;;;21.50;52.10;20.60;100798.00;;;;5089881;28;20020;-65
2022/10/22 08:47:31;;;;;;;1.58;1.10;;;21.60;52.20;20.60;100797.00;;;;5089385;28;20122;-65
2022/10/22 08:49:58;;;;;;;1.65;1.10;;;21.60;52.20;20.50;100803.00;;;;5090121;28;20043;-66
2022/10/22 08:52:23;;;;;;;1.65;1.20;;;21.60;52.20;20.60;100807.00;;;;5066203;28;20032;-65
2022/10/22 08:54:57;;;;;;;3.27;1.40;;;21.50;52.40;20.60;100808.00;;;;5087407;28;20040;-65
2022/10/22 08:57:38;;;;;;;8.50;1.73;;;21.60;52.40;20.50;100802.00;;;;5070166;28;20366;-65
2022/10/22 09:00:17;;;;;;;3.55;1.58;;;21.50;52.40;20.50;100812.00;;;;5084468;28;20028;-65
2022/10/22 09:03:06;;;;;;;3.08;1.90;;;21.60;52.80;20.50;100803.00;;;;5067488;28;20109;-66
2022/10/22 09:06:02;;;;;;;2.38;1.23;;;21.50;53.40;20.50;100818.00;;;;5070408;28;20038;-65
2022/10/22 09:08:27;;;;;;;4.68;2.00;;;21.50;53.00;20.50;100814.00;;;;5076530;28;20485;-65
2022/10/22 09:11:23;;;;;;;2.60;1.83;;;21.50;53.00;20.50;100813.00;;;;5067111;28;20036;-66
2022/10/22 09:13:50;;;;;;;3.42;1.63;;;21.50;53.20;20.50;100821.00;;;;5054010;28;20061;-66
2022/10/22 09:16:37;;;;;;;5.57;1.90;;;21.40;53.00;20.50;100822.00;;;;5062608;28;20028;-65
2022/10/22 09:19:34;;;;;;;6.32;1.77;;;21.50;53.40;20.50;100829.00;;;;5076554;28;20094;-65
2022/10/22 09:22:27;;;;;;;3.70;1.30;;;21.50;54.00;20.40;100824.00;;;;5066877;28;20043;-66
2022/10/22 09:25:08;;;;;;;6.68;2.08;;;21.50;53.80;20.40;100824.00;;;;5087071;28;20032;-66
2022/10/22 09:27:34;;;;;;;4.40;1.40;;;21.50;53.70;20.40;100832.00;;;;5062012;28;20434;-66
2022/10/22 09:30:00;;;;;;;5.70;1.43;;;21.50;53.70;20.40;100830.00;;;;5088530;28;20088;-66
2022/10/22 09:32:26;;;;;;;3.30;1.42;;;21.50;53.50;20.40;100836.00;;;;5084447;28;20040;-66
2022/10/22 09:34:55;;;;;;;2.47;1.23;;;21.50;53.80;20.40;100827.00;;;;5050015;28;20367;-66
2022/10/22 09:37:25;;;;;;;3.60;1.48;;;21.40;53.60;20.50;100836.00;;;;5065567;28;20124;-66
2022/10/22 09:39:51;;;;;;;3.80;1.23;;;21.50;53.90;20.50;100836.00;;;;5083461;28;20028;-66
2022/10/22 09:42:18;;;;;;;7.18;1.60;;;21.50;53.80;20.50;100839.00;;;;5087908;28;20396;-66
2022/10/22 09:44:51;;;;;;;4.30;1.85;;;21.50;53.60;20.50;100847.00;;;;5065068;28;20058;-77
2022/10/22 09:47:39;;;;;;;7.25;1.40;;;21.40;54.10;20.50;100844.00;;;;5074534;28;20028;-66
2022/10/22 09:50:29;;;;;;;6.80;1.40;;;21.50;54.20;20.40;100857.00;;;;5064719;28;20062;-66
2022/10/22 09:53:04;;;;;;;6.82;1.48;;;21.50;54.10;20.40;100865.00;;;;5076945;28;20024;-67
2022/10/22 09:55:30;;;;;;;6.00;1.38;;;21.50;53.80;20.50;100868.00;;;;5065439;28;20024;-67
2022/10/22 09:57:58;;;;;;;6.57;1.33;;;21.50;54.30;20.40;100868.00;;;;5078081;28;20032;-66
2022/10/22 10:00:24;;;;;;;3.38;1.40;;;21.50;54.50;20.40;100867.00;;;;5070717;28;20505;-67
2022/10/22 10:02:57;;;;;;;2.40;1.20;;;21.50;54.50;20.40;100869.00;;;;5058057;28;20103;-67
2022/10/22 10:05:34;;;;;;;3.58;1.35;;;21.50;54.50;20.40;100881.00;;;;5055883;28;20070;-67
2022/10/22 10:08:12;;;;;;;12.38;2.33;;;21.50;54.70;20.40;100870.00;;;;5082330;28;20016;-66
2022/10/22 10:11:01;;;;;;;6.38;1.77;;;21.50;54.70;20.40;100881.00;;;;5063123;28;20444;-66
2022/10/22 10:13:46;;;;;;;9.20;1.73;;;21.50;54.50;20.30;100888.00;;;;5084802;28;20035;-66
2022/10/22 10:16:52;;;;;;;8.07;1.75;;;21.50;54.40;20.30;100893.00;;;;5072675;28;20496;-66
2022/10/22 10:20:03;;;;;;;8.93;2.03;;;21.40;54.40;20.30;100894.00;;;;5041222;28;20028;-66
2022/10/22 10:22:47;;;;;;;4.28;1.00;;;21.40;54.40;20.40;100892.00;;;;5047874;28;20054;-66
2022/10/22 10:25:39;;;;;;;6.43;1.20;;;21.50;54.40;20.40;100899.00;;;;5078162;28;20432;-66
2022/10/22 10:28:25;;;;;;;10.75;2.13;;;21.40;54.40;20.40;100894.00;;;;5050726;28;20271;-66
2022/10/22 10:34:19;;;;;;;6.47;1.13;;;21.40;54.20;20.40;100896.00;;;;5092531;28;20043;-66
2022/10/22 10:37:12;;;;;;;4.25;1.23;;;21.50;54.30;20.40;100896.00;;;;5068827;28;20032;-66
2022/10/22 10:40:18;;;;;;;4.05;1.25;;;21.50;54.30;20.40;100899.00;;;;5059776;28;20369;-66
2022/10/22 10:42:59;;;;;;;3.75;1.15;;;21.40;54.10;20.40;100901.00;;;;5092628;28;20077;-66
2022/10/22 10:45:43;;;;;;;4.30;0.90;;;21.40;54.20;20.40;100903.00;;;;5058648;28;20070;-66
2022/10/22 10:48:56;;;;;;;4.65;1.40;;;21.50;54.20;20.50;100909.00;;;;5077332;28;20032;-68
2022/10/22 10:51:59;;;;;;;6.13;1.35;;;21.50;54.20;20.50;100904.00;;;;5056245;28;20043;-78
2022/10/22 10:54:37;;;;;;;7.03;1.42;;;21.40;54.10;20.40;100904.00;;;;5057217;28;20031;-68
2022/10/22 10:57:38;;;;;;;3.15;1.25;;;21.50;54.00;20.50;100907.00;;;;5071379;28;20052;-68
2022/10/22 11:00:18;;;;;;;9.15;1.50;;;21.50;54.10;20.50;100912.00;;;;5075158;28;20056;-68
2022/10/22 11:03:28;;;;;;;3.42;1.00;;;21.50;54.00;20.50;100908.00;;;;5072131;28;20036;-68
2022/10/22 11:06:15;;;;;;;4.50;1.40;;;21.50;54.00;20.50;100916.00;;;;5089736;28;20032;-68
2022/10/22 11:08:47;;;;;;;3.55;1.52;;;21.50;54.00;20.50;100910.00;;;;5054579;28;20020;-68
2022/10/22 11:11:21;;;;;;;5.22;1.40;;;21.50;53.90;20.50;100913.00;;;;5072867;28;20501;-68